sensor_id;sensor_type;location;lat;lon;timestamp;pressure;altitude;pressure_sealevel;temperature;humidity
29163;BME280;20331;53.144;8.208;2023-05-17T00:01:31;102277.41;;;11.48;75.20
29163;BME280;20331;53.144;8.208;2023-05-17T00:11:52;102284.50;;;11.31;75.83
29163;BME280;20331;53.144;8.208;2023-05-17T00:22:14;102292.38;;;11.17;74.89
29163;BME280;20331;53.144;8.208;2023-05-17T00:32:35;102286.53;;;10.95;74.04
29163;BME280;20331;53.144;8.208;2023-05-17T00:42:57;102290.09;;;10.84;73.88
29163;BME280;20331;53.144;8.208;2023-05-17T00:53:18;102288.50;;;10.63;73.93
29163;BME280;20331;53.144;8.208;2023-05-17T01:03:40;102298.13;;;10.45;74.73
29163;BME280;20331;53.144;8.208;2023-05-17T01:35:10;102314.56;;;10.33;73.91
29163;BME280;20331;53.144;8.208;2023-05-17T01:45:35;102318.06;;;10.23;73.89
29163;BME280;20331;53.144;8.208;2023-05-17T01:56:00;102336.16;;;10.20;73.90
29163;BME280;20331;53.144;8.208;2023-05-17T02:06:23;102337.91;;;10.07;74.30
29163;BME280;20331;53.144;8.208;2023-05-17T02:16:45;102338.84;;;9.90;74.75
29163;BME280;20331;53.144;8.208;2023-05-17T02:27:06;102357.84;;;9.83;75.90
29163;BME280;20331;53.144;8.208;2023-05-17T02:37:28;102365.63;;;9.72;75.78
29163;BME280;20331;53.144;8.208;2023-05-17T02:47:49;102383.72;;;9.68;76.00
29163;BME280;20331;53.144;8.208;2023-05-17T02:58:11;102390.59;;;9.51;76.16
29163;BME280;20331;53.144;8.208;2023-05-17T03:08:32;102399.25;;;9.47;76.80
29163;BME280;20331;53.144;8.208;2023-05-17T03:18:54;102414.72;;;9.38;75.24
29163;BME280;20331;53.144;8.208;2023-05-17T03:29:15;102438.84;;;9.43;74.00
29163;BME280;20331;53.144;8.208;2023-05-17T03:39:37;102442.28;;;9.42;73.12
29163;BME280;20331;53.144;8.208;2023-05-17T03:49:58;102450.91;;;9.41;71.67
29163;BME280;20331;53.144;8.208;2023-05-17T04:00:20;102457.78;;;9.49;69.71
29163;BME280;20331;53.144;8.208;2023-05-17T04:10:42;102475.91;;;9.61;69.07
29163;BME280;20331;53.144;8.208;2023-05-17T04:21:03;102476.75;;;9.75;69.43
29163;BME280;20331;53.144;8.208;2023-05-17T04:31:25;102500.88;;;9.85;68.89
29163;BME280;20331;53.144;8.208;2023-05-17T04:41:47;102502.59;;;9.89;68.58
29163;BME280;20331;53.144;8.208;2023-05-17T04:52:08;102516.38;;;9.97;68.19
29163;BME280;20331;53.144;8.208;2023-05-17T05:02:30;102512.94;;;9.96;67.75
29163;BME280;20331;53.144;8.208;2023-05-17T05:12:51;102531.88;;;10.07;67.68
29163;BME280;20331;53.144;8.208;2023-05-17T05:23:12;102549.16;;;10.22;67.53
29163;BME280;20331;53.144;8.208;2023-05-17T05:33:34;102574.16;;;10.25;67.04
29163;BME280;20331;53.144;8.208;2023-05-17T05:43:56;102582.81;;;10.27;67.50
29163;BME280;20331;53.144;8.208;2023-05-17T05:54:18;102595.75;;;10.34;68.05
29163;BME280;20331;53.144;8.208;2023-05-17T06:04:39;102623.31;;;10.41;67.94
29163;BME280;20331;53.144;8.208;2023-05-17T06:15:06;102629.38;;;10.49;66.77
29163;BME280;20331;53.144;8.208;2023-05-17T06:25:28;102638.84;;;10.50;65.47
29163;BME280;20331;53.144;8.208;2023-05-17T06:35:49;102650.91;;;10.51;65.81
29163;BME280;20331;53.144;8.208;2023-05-17T06:46:18;102665.59;;;10.54;64.88
29163;BME280;20331;53.144;8.208;2023-05-17T06:56:39;102683.72;;;10.58;65.28
29163;BME280;20331;53.144;8.208;2023-05-17T07:07:01;102694.91;;;10.57;66.22
29163;BME280;20331;53.144;8.208;2023-05-17T07:17:22;102700.09;;;10.74;64.69
29163;BME280;20331;53.144;8.208;2023-05-17T07:27:44;102725.16;;;10.76;64.43
29163;BME280;20331;53.144;8.208;2023-05-17T07:38:07;102725.13;;;10.70;64.44
29163;BME280;20331;53.144;8.208;2023-05-17T07:48:30;102734.63;;;10.83;64.77
29163;BME280;20331;53.144;8.208;2023-05-17T07:58:52;102744.13;;;10.96;63.74
29163;BME280;20331;53.144;8.208;2023-05-17T08:09:13;102748.41;;;11.28;63.32
29163;BME280;20331;53.144;8.208;2023-05-17T08:19:38;102754.44;;;11.33;63.16
29163;BME280;20331;53.144;8.208;2023-05-17T08:30:00;102745.75;;;11.46;62.91
29163;BME280;20331;53.144;8.208;2023-05-17T08:40:29;102750.88;;;11.64;59.31
29163;BME280;20331;53.144;8.208;2023-05-17T08:50:52;102773.28;;;11.92;61.90
29163;BME280;20331;53.144;8.208;2023-05-17T09:01:14;102785.38;;;11.93;59.92
29163;BME280;20331;53.144;8.208;2023-05-17T09:11:36;102810.53;;;11.77;62.61
29163;BME280;20331;53.144;8.208;2023-05-17T09:21:59;102798.38;;;11.91;58.53
29163;BME280;20331;53.144;8.208;2023-05-17T09:32:21;102809.63;;;11.86;61.60
29163;BME280;20331;53.144;8.208;2023-05-17T09:42:44;102816.50;;;11.93;61.50
29163;BME280;20331;53.144;8.208;2023-05-17T09:53:20;102828.59;;;12.03;62.55
29163;BME280;20331;53.144;8.208;2023-05-17T10:03:42;102829.31;;;12.31;64.15
29163;BME280;20331;53.144;8.208;2023-05-17T10:14:06;102829.38;;;12.25;64.32
29163;BME280;20331;53.144;8.208;2023-05-17T10:24:30;102824.19;;;12.19;63.37
29163;BME280;20331;53.144;8.208;2023-05-17T10:34:51;102807.63;;;12.42;62.85
29163;BME280;20331;53.144;8.208;2023-05-17T10:45:31;102825.84;;;12.33;62.78
29163;BME280;20331;53.144;8.208;2023-05-17T10:55:53;102831.00;;;12.41;55.88
29163;BME280;20331;53.144;8.208;2023-05-17T11:06:17;102806.56;;;12.73;59.45
29163;BME280;20331;53.144;8.208;2023-05-17T11:16:46;102806.44;;;12.90;54.16
29163;BME280;20331;53.144;8.208;2023-05-17T11:27:07;102811.25;;;13.35;56.94
29163;BME280;20331;53.144;8.208;2023-05-17T11:37:29;102812.28;;;13.19;58.37
29163;BME280;20331;53.144;8.208;2023-05-17T11:47:50;102833.81;;;13.33;59.18
29163;BME280;20331;53.144;8.208;2023-05-17T11:58:14;102827.72;;;13.37;57.26
29163;BME280;20331;53.144;8.208;2023-05-17T12:08:36;102819.91;;;13.37;57.74
29163;BME280;20331;53.144;8.208;2023-05-17T12:18:58;102832.06;;;13.38;58.21
29163;BME280;20331;53.144;8.208;2023-05-17T12:29:20;102832.25;;;13.16;55.70
29163;BME280;20331;53.144;8.208;2023-05-17T12:39:43;102834.94;;;13.00;58.52
29163;BME280;20331;53.144;8.208;2023-05-17T12:50:05;102854.03;;;12.93;60.19
29163;BME280;20331;53.144;8.208;2023-05-17T13:00:26;102837.59;;;12.93;55.40
29163;BME280;20331;53.144;8.208;2023-05-17T13:10:48;102837.53;;;13.05;58.90
29163;BME280;20331;53.144;8.208;2023-05-17T13:21:10;102833.84;;;13.32;58.35
29163;BME280;20331;53.144;8.208;2023-05-17T13:31:31;102840.00;;;13.19;56.52
29163;BME280;20331;53.144;8.208;2023-05-17T13:41:53;102825.34;;;13.15;56.17
29163;BME280;20331;53.144;8.208;2023-05-17T13:52:14;102825.84;;;13.50;56.57
29163;BME280;20331;53.144;8.208;2023-05-17T14:02:38;102819.72;;;13.55;57.75
29163;BME280;20331;53.144;8.208;2023-05-17T14:13:00;102826.69;;;13.55;57.27
29163;BME280;20331;53.144;8.208;2023-05-17T14:23:21;102838.00;;;13.51;57.44
29163;BME280;20331;53.144;8.208;2023-05-17T14:33:43;102837.16;;;13.47;58.52
29163;BME280;20331;53.144;8.208;2023-05-17T14:44:04;102858.22;;;13.20;59.55
29163;BME280;20331;53.144;8.208;2023-05-17T14:54:26;102851.25;;;13.21;60.06
29163;BME280;20331;53.144;8.208;2023-05-17T15:04:52;102859.84;;;13.30;59.54
29163;BME280;20331;53.144;8.208;2023-05-17T15:15:14;102851.34;;;13.15;55.41
29163;BME280;20331;53.144;8.208;2023-05-17T15:25:35;102853.84;;;13.24;59.51
29163;BME280;20331;53.144;8.208;2023-05-17T15:35:57;102854.69;;;13.24;60.46
29163;BME280;20331;53.144;8.208;2023-05-17T15:46:19;102845.31;;;13.06;55.39
29163;BME280;20331;53.144;8.208;2023-05-17T15:56:40;102850.41;;;13.19;53.32
29163;BME280;20331;53.144;8.208;2023-05-17T16:07:02;102841.63;;;13.36;59.59
29163;BME280;20331;53.144;8.208;2023-05-17T16:17:23;102861.59;;;13.28;60.15
29163;BME280;20331;53.144;8.208;2023-05-17T16:27:45;102868.72;;;13.05;59.92
29163;BME280;20331;53.144;8.208;2023-05-17T16:38:07;102878.31;;;12.92;60.70
29163;BME280;20331;53.144;8.208;2023-05-17T16:48:28;102883.63;;;12.71;61.57
29163;BME280;20331;53.144;8.208;2023-05-17T16:58:50;102899.25;;;12.68;61.62
29163;BME280;20331;53.144;8.208;2023-05-17T17:09:12;102900.13;;;12.69;60.95
29163;BME280;20331;53.144;8.208;2023-05-17T17:19:34;102908.78;;;12.62;59.16
29163;BME280;20331;53.144;8.208;2023-05-17T17:29:55;102911.41;;;12.60;59.90
29163;BME280;20331;53.144;8.208;2023-05-17T17:40:17;102910.59;;;12.52;60.95
29163;BME280;20331;53.144;8.208;2023-05-17T17:50:38;102925.38;;;12.29;58.96
29163;BME280;20331;53.144;8.208;2023-05-17T18:01:00;102937.53;;;12.18;60.77
29163;BME280;20331;53.144;8.208;2023-05-17T18:11:21;102942.75;;;12.09;59.38
29163;BME280;20331;53.144;8.208;2023-05-17T18:21:43;102949.69;;;12.01;59.27
29163;BME280;20331;53.144;8.208;2023-05-17T18:32:05;102953.16;;;11.82;59.45
29163;BME280;20331;53.144;8.208;2023-05-17T18:42:27;102956.66;;;11.72;60.38
29163;BME280;20331;53.144;8.208;2023-05-17T18:52:48;102955.75;;;11.62;56.35
29163;BME280;20331;53.144;8.208;2023-05-17T19:03:10;102961.81;;;11.69;61.30
29163;BME280;20331;53.144;8.208;2023-05-17T19:13:31;102960.09;;;11.65;61.82
29163;BME280;20331;53.144;8.208;2023-05-17T19:23:53;102965.25;;;11.53;61.83
29163;BME280;20331;53.144;8.208;2023-05-17T19:34:14;102974.75;;;11.37;60.78
29163;BME280;20331;53.144;8.208;2023-05-17T19:44:36;102973.88;;;11.28;61.38
29163;BME280;20331;53.144;8.208;2023-05-17T19:54:57;102986.81;;;11.22;62.45
29163;BME280;20331;53.144;8.208;2023-05-17T20:05:19;102994.56;;;11.15;60.12
29163;BME280;20331;53.144;8.208;2023-05-17T20:15:40;102985.94;;;11.20;62.35
29163;BME280;20331;53.144;8.208;2023-05-17T20:26:02;102987.69;;;11.22;62.69
29163;BME280;20331;53.144;8.208;2023-05-17T20:36:24;102983.34;;;11.15;60.83
29163;BME280;20331;53.144;8.208;2023-05-17T20:46:45;102982.44;;;11.10;62.89
29163;BME280;20331;53.144;8.208;2023-05-17T20:57:07;102991.06;;;11.04;62.20
29163;BME280;20331;53.144;8.208;2023-05-17T21:07:28;102989.31;;;10.97;62.61
29163;BME280;20331;53.144;8.208;2023-05-17T21:17:50;102986.69;;;10.81;61.14
29163;BME280;20331;53.144;8.208;2023-05-17T21:28:11;102983.25;;;10.85;61.56
29163;BME280;20331;53.144;8.208;2023-05-17T21:38:33;102976.31;;;10.79;62.03
29163;BME280;20331;53.144;8.208;2023-05-17T21:48:54;102979.78;;;10.81;61.46
29163;BME280;20331;53.144;8.208;2023-05-17T21:59:16;102978.88;;;10.73;61.30
29163;BME280;20331;53.144;8.208;2023-05-17T22:09:37;102970.28;;;10.80;61.14
29163;BME280;20331;53.144;8.208;2023-05-17T22:19:59;102982.34;;;10.72;63.09
29163;BME280;20331;53.144;8.208;2023-05-17T22:30:23;102973.69;;;10.70;62.76
29163;BME280;20331;53.144;8.208;2023-05-17T22:40:44;102974.53;;;10.66;62.88
29163;BME280;20331;53.144;8.208;2023-05-17T22:51:06;102984.00;;;10.64;63.01
29163;BME280;20331;53.144;8.208;2023-05-17T23:01:27;102990.94;;;10.65;63.99
29163;BME280;20331;53.144;8.208;2023-05-17T23:11:49;102990.06;;;10.63;64.07
29163;BME280;20331;53.144;8.208;2023-05-17T23:22:10;102991.78;;;10.63;63.62
29163;BME280;20331;53.144;8.208;2023-05-17T23:32:32;102997.78;;;10.57;63.14
29163;BME280;20331;53.144;8.208;2023-05-17T23:42:54;102992.63;;;10.56;63.97
29163;BME280;20331;53.144;8.208;2023-05-17T23:53:15;102989.16;;;10.54;63.79
